createdAt,value
2019-03-22T01:04:14.725Z,41.91
2019-03-22T01:09:16.018Z,42.06
2019-03-22T01:14:17.358Z,41.93
2019-03-22T01:19:18.684Z,42.33
2019-03-22T01:24:20.002Z,42.18
2019-03-22T01:29:21.284Z,42.44
2019-03-22T02:31:24.698Z,43.22
2019-03-22T02:36:25.990Z,43.16
2019-03-22T02:41:27.339Z,43.15
2019-03-22T02:46:28.649Z,43.27
2019-03-22T02:51:29.972Z,43.39
2019-03-22T02:56:31.274Z,43.56
2019-03-22T04:04:54.012Z,45.65
2019-03-22T04:09:55.325Z,46.26
2019-03-22T04:14:56.628Z,45.79
2019-03-22T04:19:57.946Z,45.95
2019-03-22T04:25:05.144Z,46.03
2019-03-22T04:30:06.472Z,45.86
2019-03-22T05:32:10.530Z,47.95
2019-03-22T05:37:12.585Z,48.10
2019-03-22T05:42:13.854Z,48.04
2019-03-22T05:47:15.188Z,48.29
2019-03-22T05:52:16.525Z,47.96
2019-03-22T05:57:17.941Z,47.84
2019-03-22T07:05:40.472Z,46.49
2019-03-22T07:10:41.760Z,46.24
2019-03-22T07:15:43.119Z,45.95
2019-03-22T07:20:44.414Z,45.86
2019-03-22T07:25:45.708Z,45.92
2019-03-22T07:30:47.037Z,45.69
2019-03-22T08:32:52.090Z,42.67
2019-03-22T08:37:53.361Z,42.50
2019-03-22T08:42:55.191Z,41.84
2019-03-22T08:47:57.232Z,42.21
2019-03-22T08:52:58.512Z,41.74
2019-03-22T08:57:59.825Z,41.49
2019-03-22T10:00:31.606Z,38.78
2019-03-22T10:05:33.688Z,39.07
2019-03-22T10:10:35.072Z,37.15
2019-03-22T10:15:36.336Z,36.96
2019-03-22T10:20:37.620Z,36.91
2019-03-22T10:25:38.939Z,36.76
2019-03-22T11:34:01.616Z,34.66
2019-03-22T11:39:03.031Z,34.66
2019-03-22T11:44:05.068Z,34.50
2019-03-22T11:49:06.379Z,33.93
2019-03-22T11:54:08.454Z,33.25
2019-03-22T11:59:09.733Z,33.32
2019-03-22T13:01:12.172Z,28.94
2019-03-22T13:06:13.484Z,28.73
2019-03-22T13:11:14.773Z,28.49
2019-03-22T13:16:17.097Z,27.62
2019-03-22T13:21:18.367Z,27.08
2019-03-22T13:26:19.659Z,26.69
2019-03-22T14:34:42.761Z,20.51
2019-03-22T14:39:44.041Z,19.60
2019-03-22T14:44:45.341Z,18.85
2019-03-22T14:49:46.680Z,18.00
2019-03-22T14:54:48.700Z,18.20
2019-03-22T14:59:58.583Z,17.39
2019-03-22T16:01:53.984Z,19.16
2019-03-22T16:06:55.377Z,19.29
2019-03-22T16:11:56.721Z,19.67
2019-03-22T16:17:01.990Z,20.58
2019-03-22T16:22:03.336Z,20.49
2019-03-22T16:27:05.225Z,20.48
2019-03-22T16:32:06.669Z,20.52
2019-03-22T16:37:07.971Z,20.75
2019-03-22T16:42:09.367Z,20.89
2019-03-22T16:47:11.484Z,21.22
2019-03-22T16:52:12.844Z,21.48
2019-03-22T16:57:14.231Z,21.77
2019-03-22T17:02:16.079Z,22.01
2019-03-22T17:07:17.390Z,22.25
2019-03-22T17:12:18.726Z,22.49
2019-03-22T17:17:21.100Z,22.80
2019-03-22T17:22:26.566Z,22.95
2019-03-22T17:27:27.901Z,23.17
2019-03-22T17:32:30.009Z,23.51
2019-03-22T17:37:31.381Z,23.91
2019-03-22T17:42:33.803Z,24.19
2019-03-22T17:47:35.367Z,24.29
2019-03-22T17:52:36.715Z,24.51
2019-03-22T17:57:38.773Z,24.85
2019-03-22T18:02:40.104Z,25.22
2019-03-22T18:07:41.444Z,25.66
2019-03-22T18:12:42.813Z,25.97
2019-03-22T18:17:44.202Z,26.25
2019-03-22T18:22:45.542Z,26.67
2019-03-22T18:27:49.244Z,26.73
2019-03-22T18:33:03.921Z,27.19
2019-03-22T18:38:05.292Z,27.66
2019-03-22T18:43:09.465Z,28.26
2019-03-22T18:48:12.503Z,28.52
2019-03-22T18:53:14.006Z,29.33
2019-03-22T18:58:17.369Z,29.40
2019-03-22T19:03:28.820Z,29.87
2019-03-22T19:08:31.109Z,30.31
2019-03-22T19:13:33.262Z,30.74
2019-03-22T19:18:34.607Z,31.46
2019-03-22T19:23:36.004Z,31.54
2019-03-22T19:28:37.434Z,32.13
2019-03-22T19:33:38.789Z,32.60
2019-03-22T19:38:40.097Z,33.29
2019-03-22T19:43:42.199Z,33.43
2019-03-22T19:48:44.262Z,33.80
2019-03-22T19:53:45.596Z,34.13
2019-03-22T19:58:47.048Z,34.67
2019-03-22T20:03:48.522Z,34.83
2019-03-22T20:08:49.898Z,35.23
2019-03-22T20:13:51.238Z,35.52
2019-03-22T20:18:52.560Z,35.55
2019-03-22T20:23:54.762Z,35.73
2019-03-22T20:28:56.931Z,36.20
2019-03-22T20:33:58.644Z,36.64
2019-03-22T20:39:00.140Z,37.13
2019-03-22T20:44:01.741Z,37.41
2019-03-22T20:49:05.149Z,37.74
2019-03-22T20:54:04.638Z,38.17
2019-03-22T20:59:06.081Z,38.15
2019-03-22T21:04:07.401Z,38.72
2019-03-22T21:09:08.805Z,38.98
2019-03-22T21:14:10.252Z,39.49
2019-03-22T21:19:11.750Z,39.49
2019-03-22T21:24:13.417Z,39.73
2019-03-22T21:29:14.886Z,40.41
2019-03-22T21:34:16.276Z,40.37
2019-03-22T21:39:19.173Z,40.68
2019-03-22T21:44:21.469Z,40.45
2019-03-22T21:49:23.523Z,40.98
2019-03-22T21:54:25.250Z,40.95
2019-03-22T21:59:29.748Z,40.66
2019-03-22T22:04:37.599Z,41.50
2019-03-22T22:09:40.655Z,42.27
2019-03-22T22:14:44.945Z,41.49
2019-03-22T22:19:47.161Z,41.39
2019-03-22T22:24:48.571Z,41.68
2019-03-22T22:29:51.842Z,41.92
2019-03-22T22:34:53.319Z,42.02
2019-03-22T22:39:56.352Z,42.26
2019-03-22T22:44:57.778Z,43.04
2019-03-22T22:50:03.979Z,43.62
2019-03-22T22:55:12.725Z,43.63
2019-03-22T23:00:14.131Z,43.66
2019-03-22T23:30:42.749Z,44.25
2019-03-22T23:35:44.066Z,44.57
2019-03-22T23:40:45.458Z,44.45
2019-03-22T23:45:47.510Z,44.74
2019-03-22T23:50:48.857Z,44.86
2019-03-22T23:55:50.173Z,44.87
